Terminal Aerodrome Forecast
Issued by NWS

Home | Current Version | Previous Version | Text Only | Print | Product List | Glossary On
Versions: 1 2 3 4 5 6 7 8 9 10 11 12 13
000
FTUS45 KFGZ 210531
TAFPRC
TAF
KPRC 210531Z 2106/2206 VRB03KT P6SM SCT110
     FM211800 VRB06KT P6SM SCT080 PROB30 2118/2124 VRB15G25KT -TSRA
      BKN080CB=

USA.gov is the U.S. government's official web portal to all federal, state and local government web resources and services.